LYBE/BEG METAR and TAF weather

Enter ICAO airport designator
Station Type Date Time Source
LYBE METAR 2020/10/29 16:30 UTC NOAA

LYBE 291630Z 31006KT 6000 NSC 14/12 Q1019 NOSIG


Station Type Date Time Source
LYBE Decoded METAR 2020/10/29 16:30 UTC NOAA

Beograd / Surcin, Serbia and Montenegro (LYBE) 44-49N 020-17E 99M
Oct 29, 2020 - 12:30 PM EDT / 2020.10.29 1630 UTC
Wind: from the NW (310 degrees) at 7 MPH (6 KT):0
Visibility: 3 mile(s):0
Temperature: 57 F (14 C)
Dew Point: 53 F (12 C)
Relative Humidity: 87%
Pressure (altimeter): 30.09 in. Hg (1019 hPa)
ob: LYBE 291630Z 31006KT 6000 NSC 14/12 Q1019 NOSIG
cycle: 16

Station Type Date Time Source
LYBE TAF 2020/10/29 12:22 UTC NOAA

TAF LYBE 291100Z 2912/3012 20005KT 9999 SCT020 TX17/2913Z TN08/3005Z
BECMG 2917/2919 34012KT
TEMPO 2919/2924 32015G25KT 4000 SHRA SCT027TCU BKN035

Example: see airport list